createdAt,value
2018-05-10T17:10:44.109Z,12.30
2018-05-10T17:13:11.655Z,12.30
2018-05-10T17:15:39.221Z,12.20
2018-05-10T17:18:06.751Z,12.20
2018-05-10T17:20:34.490Z,12.10
2018-05-10T17:23:02.046Z,12.20
2018-05-10T17:25:29.601Z,12.20
2018-05-10T17:27:57.164Z,12.10
2018-05-10T17:30:24.736Z,12.10
2018-05-10T17:32:52.273Z,12.20
2018-05-10T17:35:19.883Z,12.20
2018-05-10T17:37:47.417Z,12.10
2018-05-10T17:40:15.860Z,12.10
2018-05-10T17:42:43.407Z,12.10
2018-05-10T17:45:10.971Z,12.10
2018-05-10T17:47:38.533Z,12.10
2018-05-10T17:50:06.064Z,12.10
2018-05-10T17:52:33.632Z,12.00
2018-05-10T17:55:01.157Z,12.00
2018-05-10T17:57:30.649Z,11.80
2018-05-10T17:59:58.207Z,11.90
2018-05-10T18:02:25.781Z,11.90
2018-05-10T18:04:53.317Z,11.90
2018-05-10T18:07:20.954Z,11.90
2018-05-10T18:09:48.434Z,11.80
2018-05-10T18:12:16.847Z,11.90
2018-05-10T18:14:45.177Z,11.90
2018-05-10T18:17:12.735Z,11.90
2018-05-10T18:19:40.281Z,11.90
2018-05-10T18:22:07.907Z,11.90
2018-05-10T18:24:36.249Z,11.90
2018-05-10T18:27:03.791Z,11.90
2018-05-10T18:29:31.370Z,11.90
2018-05-10T18:31:58.903Z,11.70
2018-05-10T18:34:26.500Z,11.70
2018-05-10T18:36:54.049Z,11.60
2018-05-10T18:39:21.620Z,11.60
2018-05-10T18:41:49.162Z,11.60
2018-05-10T18:44:16.738Z,11.70
2018-05-10T18:46:44.276Z,11.60
2018-05-10T18:49:11.834Z,11.70
2018-05-10T18:51:39.378Z,11.50
2018-05-10T18:54:06.951Z,11.60
2018-05-10T18:56:34.519Z,11.70
2018-05-10T18:59:02.188Z,11.60
2018-05-10T19:01:29.747Z,11.70
2018-05-10T19:03:57.323Z,11.90
2018-05-10T19:06:24.989Z,11.70
2018-05-10T19:08:52.543Z,11.70
2018-05-10T19:11:20.123Z,11.70
2018-05-10T19:13:47.663Z,11.70
2018-05-10T19:16:15.240Z,11.70
2018-05-10T19:18:42.786Z,11.70
2018-05-10T19:21:10.367Z,11.70
2018-05-10T19:23:37.912Z,11.70
2018-05-10T19:26:05.487Z,11.80
2018-05-10T19:28:33.030Z,11.70
2018-05-10T19:31:00.794Z,11.80
2018-05-10T19:33:28.398Z,11.80
2018-05-10T19:35:56.727Z,11.80
2018-05-10T19:38:24.265Z,11.70
2018-05-10T19:40:51.835Z,11.70
2018-05-10T19:43:19.382Z,11.80
2018-05-10T19:45:46.925Z,11.70
2018-05-10T19:48:14.531Z,11.70
2018-05-10T19:50:42.103Z,11.70
2018-05-10T19:53:09.673Z,11.80
2018-05-10T19:55:37.223Z,11.80
2018-05-10T19:58:04.807Z,11.80
2018-05-10T20:00:33.134Z,11.60
2018-05-10T20:03:00.724Z,11.50
2018-05-10T20:05:28.306Z,11.50
2018-05-10T20:07:56.645Z,11.60
2018-05-10T20:10:24.176Z,11.60
2018-05-10T20:12:51.737Z,11.70
2018-05-10T20:15:19.332Z,11.70
2018-05-10T20:17:46.892Z,11.80
2018-05-10T20:20:14.431Z,11.70
2018-05-10T20:22:41.969Z,11.60
2018-05-10T20:25:09.550Z,11.50
2018-05-10T20:27:37.102Z,11.60
2018-05-10T20:30:04.669Z,11.60
2018-05-10T20:32:32.248Z,11.60
2018-05-10T20:34:59.812Z,11.50
2018-05-10T20:37:27.353Z,11.50
2018-05-10T20:39:54.923Z,11.60
2018-05-10T20:42:22.467Z,11.60
2018-05-10T20:44:50.107Z,11.70
2018-05-10T20:47:17.607Z,11.60
2018-05-10T20:49:45.176Z,11.60
2018-05-10T20:52:12.711Z,11.60
2018-05-10T20:54:40.277Z,11.60
2018-05-10T20:57:07.807Z,11.50
2018-05-10T20:59:35.375Z,11.50
2018-05-10T21:02:02.914Z,11.60
2018-05-10T21:04:31.223Z,11.70
2018-05-10T21:06:58.984Z,11.60
2018-05-10T21:09:26.572Z,11.70
2018-05-10T21:11:54.200Z,11.80
2018-05-10T21:14:21.714Z,11.80
2018-05-10T21:16:49.335Z,11.80
2018-05-10T21:19:16.889Z,11.70
2018-05-10T21:21:44.488Z,11.70
2018-05-10T21:24:12.029Z,11.70
2018-05-10T21:26:39.598Z,11.70
2018-05-10T21:29:07.148Z,11.60
2018-05-10T21:31:34.715Z,11.70
2018-05-10T21:34:02.458Z,11.70
2018-05-10T21:36:29.967Z,11.70
2018-05-10T21:38:57.518Z,11.60
2018-05-10T21:41:25.122Z,11.50
2018-05-10T21:43:52.810Z,11.50
2018-05-10T21:46:20.395Z,11.50
2018-05-10T21:48:47.950Z,11.40
2018-05-10T21:51:15.488Z,11.50
2018-05-10T21:53:43.064Z,11.50
2018-05-10T21:56:10.599Z,11.60
2018-05-10T21:58:38.353Z,11.50
2018-05-10T22:01:05.915Z,11.40
2018-05-10T22:03:33.473Z,11.40
2018-05-10T22:06:01.008Z,11.60
2018-05-10T22:08:29.426Z,11.50
2018-05-10T22:10:56.961Z,11.50
2018-05-10T22:13:25.279Z,11.40
2018-05-10T22:15:52.817Z,11.40
2018-05-10T22:18:20.395Z,11.30
2018-05-10T22:20:47.957Z,11.20
2018-05-10T22:23:15.507Z,11.20
2018-05-10T22:25:43.109Z,11.20
2018-05-10T22:28:10.671Z,11.10
2018-05-10T22:30:38.248Z,11.20
2018-05-10T22:33:05.963Z,11.10
2018-05-10T22:35:33.593Z,11.00
2018-05-10T22:38:01.159Z,11.10
2018-05-10T22:40:28.736Z,11.10
2018-05-10T22:42:56.308Z,11.10
2018-05-10T22:45:25.934Z,11.00
2018-05-10T22:47:53.470Z,11.10
2018-05-10T22:50:21.259Z,11.10
2018-05-10T22:52:48.796Z,11.10
2018-05-10T22:55:16.354Z,11.00
2018-05-10T22:57:43.929Z,11.10
2018-05-10T23:00:11.504Z,11.20
2018-05-10T23:02:39.091Z,11.10
2018-05-10T23:05:06.653Z,11.00
2018-05-10T23:07:34.221Z,11.10
2018-05-10T23:10:02.761Z,11.00
2018-05-10T23:12:30.316Z,11.00
2018-05-10T23:14:57.847Z,11.00
2018-05-10T23:17:25.395Z,10.90
2018-05-10T23:19:53.708Z,11.00
2018-05-10T23:22:21.267Z,10.90
2018-05-10T23:24:48.827Z,10.90
2018-05-10T23:27:16.381Z,10.90
2018-05-10T23:29:44.004Z,10.80
2018-05-10T23:32:11.521Z,10.80
2018-05-10T23:34:39.101Z,10.90
2018-05-10T23:37:06.778Z,10.70
2018-05-10T23:39:35.121Z,10.70
2018-05-10T23:42:02.704Z,10.70
2018-05-10T23:44:31.303Z,10.60
2018-05-10T23:46:58.972Z,10.60
2018-05-10T23:49:27.294Z,10.50
2018-05-10T23:51:54.832Z,10.50
2018-05-10T23:54:22.390Z,10.70
2018-05-10T23:56:49.995Z,10.70
2018-05-10T23:59:17.569Z,10.60
